Time;durP1;ratioP1;P1;durP2;ratioP2;P2;SDS_P1;SDS_P2;PMS_P1;PMS_P2;Temp;Humidity;BMP_temperature;BMP_pressure;BME280_temperature;BME280_humidity;BME280_pressure;Samples;Min_cycle;Max_cycle;Signal;HPM_P1;HPM_P2
2021/04/02 00:02:21;;;;;;;14.38;4.63;;;;;;;;;;5071993;28;20029;-78
2021/04/02 00:04:46;;;;;;;14.00;4.20;;;;;;;;;;5070682;28;20021;-78
2021/04/02 00:07:11;;;;;;;10.15;4.00;;;;;;;;;;5070683;28;20035;-78
2021/04/02 00:09:36;;;;;;;12.68;4.15;;;;;;;;;;5070604;28;20016;-78
2021/04/02 00:12:02;;;;;;;14.48;4.35;;;;;;;;;;5070687;28;20029;-78
2021/04/02 00:14:27;;;;;;;12.10;4.15;;;;;;;;;;5070604;28;20414;-78
2021/04/02 00:16:52;;;;;;;9.13;4.00;;;;;;;;;;5072661;28;20013;-78
2021/04/02 00:19:18;;;;;;;12.45;4.10;;;;;;;;;;5074180;28;20021;-78
2021/04/02 00:21:43;;;;;;;18.58;4.45;;;;;;;;;;5075614;28;20016;-78
2021/04/02 00:24:08;;;;;;;15.77;4.33;;;;;;;;;;5074370;28;20059;-78
2021/04/02 00:26:33;;;;;;;12.90;4.20;;;;;;;;;;5073948;28;20023;-78
2021/04/02 00:28:59;;;;;;;14.70;4.57;;;;;;;;;;5074329;28;20379;-78
2021/04/02 00:31:24;;;;;;;11.93;4.60;;;;;;;;;;5074115;28;20070;-78
2021/04/02 00:33:50;;;;;;;10.83;4.43;;;;;;;;;;5075503;28;20016;-78
2021/04/02 00:36:15;;;;;;;15.83;4.20;;;;;;;;;;5074192;28;20052;-78
2021/04/02 00:38:40;;;;;;;12.43;4.83;;;;;;;;;;5074108;28;20016;-78
2021/04/02 00:41:08;;;;;;;9.97;4.00;;;;;;;;;;5075429;28;20027;-78
2021/04/02 00:43:34;;;;;;;16.67;4.60;;;;;;;;;;5073930;28;20043;-78
2021/04/02 00:45:59;;;;;;;11.10;4.30;;;;;;;;;;5075385;28;20095;-78
2021/04/02 00:48:25;;;;;;;19.37;4.70;;;;;;;;;;5073764;28;20484;-78
2021/04/02 00:50:52;;;;;;;10.17;4.10;;;;;;;;;;5073950;28;20020;-78
2021/04/02 00:53:18;;;;;;;15.77;4.47;;;;;;;;;;5075145;28;20416;-78
2021/04/02 00:55:44;;;;;;;16.98;5.00;;;;;;;;;;5075128;28;20434;-78
2021/04/02 00:58:11;;;;;;;12.63;4.10;;;;;;;;;;5075248;28;20029;-78
2021/04/02 01:00:36;;;;;;;9.27;4.73;;;;;;;;;;5074819;28;20373;-78
2021/04/02 01:03:01;;;;;;;12.00;4.80;;;;;;;;;;5073627;28;20020;-78
2021/04/02 01:05:29;;;;;;;14.87;4.87;;;;;;;;;;5073696;28;20091;-78
2021/04/02 01:07:56;;;;;;;12.50;4.80;;;;;;;;;;5069086;28;20028;-78
2021/04/02 01:10:22;;;;;;;18.93;5.10;;;;;;;;;;5104813;28;20028;-78
2021/04/02 01:12:49;;;;;;;13.77;4.57;;;;;;;;;;5073332;28;20016;-78
2021/04/02 01:15:26;;;;;;;12.13;4.80;;;;;;;;;;5073259;28;20029;-78
2021/04/02 01:17:52;;;;;;;11.83;5.50;;;;;;;;;;5072313;28;20375;-78
2021/04/02 01:20:20;;;;;;;13.23;4.87;;;;;;;;;;5072840;28;20370;-78
2021/04/02 01:22:46;;;;;;;18.00;5.97;;;;;;;;;;5074791;28;20056;-78
2021/04/02 01:25:16;;;;;;;10.87;4.80;;;;;;;;;;5073111;28;20031;-78
2021/04/02 01:28:06;;;;;;;17.43;5.30;;;;;;;;;;5072718;28;20032;-78
2021/04/02 01:30:31;;;;;;;18.80;4.63;;;;;;;;;;5073036;28;20109;-78
2021/04/02 01:32:58;;;;;;;8.77;4.27;;;;;;;;;;5073019;28;20099;-78
2021/04/02 01:35:25;;;;;;;14.90;4.70;;;;;;;;;;5072941;28;20016;-78
2021/04/02 01:38:26;;;;;;;10.83;4.77;;;;;;;;;;5073044;28;20013;-78
2021/04/02 01:40:54;;;;;;;8.73;4.43;;;;;;;;;;5051854;28;20017;-78
2021/04/02 01:43:24;;;;;;;11.70;4.33;;;;;;;;;;5060031;28;20035;-78
2021/04/02 01:45:51;;;;;;;11.63;4.13;;;;;;;;;;5072481;28;20491;-78
2021/04/02 01:48:17;;;;;;;13.07;4.23;;;;;;;;;;5072779;28;20027;-78
2021/04/02 01:50:44;;;;;;;14.23;4.37;;;;;;;;;;5073559;28;20024;-78
2021/04/02 01:53:09;;;;;;;15.23;4.43;;;;;;;;;;5074039;28;20027;-78
2021/04/02 01:55:35;;;;;;;10.43;4.13;;;;;;;;;;5073642;28;20020;-78
2021/04/02 01:58:01;;;;;;;13.10;4.30;;;;;;;;;;5072494;28;20023;-78
2021/04/02 02:00:30;;;;;;;12.97;4.40;;;;;;;;;;5074108;28;20133;-77
2021/04/02 02:02:59;;;;;;;16.90;4.37;;;;;;;;;;5072436;28;20012;-78
2021/04/02 02:05:24;;;;;;;12.27;4.33;;;;;;;;;;5072500;28;20379;-78
2021/04/02 02:07:50;;;;;;;13.83;4.20;;;;;;;;;;5073486;28;20015;-78
2021/04/02 02:10:17;;;;;;;18.70;4.50;;;;;;;;;;5072368;28;20085;-79
2021/04/02 02:12:43;;;;;;;18.00;4.03;;;;;;;;;;5072107;28;20031;-78
2021/04/02 02:15:12;;;;;;;13.77;4.47;;;;;;;;;;5072284;28;20032;-78
2021/04/02 02:17:39;;;;;;;15.10;4.57;;;;;;;;;;5073466;28;20021;-78
2021/04/02 02:20:08;;;;;;;11.30;4.50;;;;;;;;;;5072009;28;20017;-78
2021/04/02 02:22:33;;;;;;;11.17;4.10;;;;;;;;;;5072156;28;20432;-78
2021/04/02 02:24:59;;;;;;;11.00;5.13;;;;;;;;;;5071919;28;20055;-78
2021/04/02 02:27:24;;;;;;;11.77;4.63;;;;;;;;;;5073428;28;20069;-78
2021/04/02 02:29:50;;;;;;;15.40;4.33;;;;;;;;;;5073176;28;20102;-78
2021/04/02 02:32:15;;;;;;;17.37;4.87;;;;;;;;;;5072007;28;20130;-78
2021/04/02 02:34:40;;;;;;;14.70;4.70;;;;;;;;;;5071815;28;20028;-78
2021/04/02 02:37:06;;;;;;;10.73;4.23;;;;;;;;;;5072992;28;20008;-78
2021/04/02 02:39:32;;;;;;;12.93;4.60;;;;;;;;;;5072377;28;20016;-78
2021/04/02 02:41:57;;;;;;;22.03;5.17;;;;;;;;;;5071519;28;20416;-78
2021/04/02 02:44:23;;;;;;;19.70;4.90;;;;;;;;;;5072895;28;20012;-78
2021/04/02 02:46:49;;;;;;;12.60;4.73;;;;;;;;;;5071230;28;20369;-78
2021/04/02 02:49:15;;;;;;;15.13;5.03;;;;;;;;;;5058054;28;20047;-78
2021/04/02 02:51:41;;;;;;;19.17;4.60;;;;;;;;;;5072918;28;20095;-78
2021/04/02 02:54:08;;;;;;;14.93;4.73;;;;;;;;;;5071194;28;20021;-78
2021/04/02 02:56:35;;;;;;;13.47;3.87;;;;;;;;;;5071505;28;20024;-78
2021/04/02 02:59:05;;;;;;;16.90;4.70;;;;;;;;;;5071311;28;20108;-80
2021/04/02 03:01:32;;;;;;;19.13;4.70;;;;;;;;;;5071505;28;20013;-78
2021/04/02 03:03:58;;;;;;;14.73;4.87;;;;;;;;;;5105251;28;20040;-79
2021/04/02 03:06:24;;;;;;;15.07;4.07;;;;;;;;;;5071359;28;20020;-78
2021/04/02 03:08:51;;;;;;;18.73;5.50;;;;;;;;;;5071433;28;20110;-78
2021/04/02 03:11:18;;;;;;;13.47;4.87;;;;;;;;;;5072756;28;20024;-78
2021/04/02 03:13:44;;;;;;;13.03;4.90;;;;;;;;;;5071145;28;20043;-78
2021/04/02 03:16:10;;;;;;;13.73;4.40;;;;;;;;;;5070444;28;20009;-78
2021/04/02 03:18:36;;;;;;;16.33;5.17;;;;;;;;;;5072649;28;20017;-78
2021/04/02 03:21:02;;;;;;;16.13;4.50;;;;;;;;;;5071282;28;20337;-78
2021/04/02 03:23:28;;;;;;;14.57;4.60;;;;;;;;;;5070966;28;20016;-78
2021/04/02 03:25:53;;;;;;;10.93;4.50;;;;;;;;;;5071041;28;20021;-78
2021/04/02 03:28:19;;;;;;;13.83;4.50;;;;;;;;;;5072313;28;20022;-78
2021/04/02 03:30:45;;;;;;;13.57;4.73;;;;;;;;;;5071187;28;20375;-78
2021/04/02 03:33:12;;;;;;;12.37;4.77;;;;;;;;;;5072260;28;20046;-78
2021/04/02 03:35:38;;;;;;;16.03;4.20;;;;;;;;;;5070713;28;20432;-78
2021/04/02 03:38:04;;;;;;;16.27;4.73;;;;;;;;;;5071168;28;20028;-78
2021/04/02 03:40:30;;;;;;;11.57;4.40;;;;;;;;;;5070932;28;20063;-78
2021/04/02 03:42:57;;;;;;;14.30;4.87;;;;;;;;;;5071155;28;20464;-78
2021/04/02 03:45:23;;;;;;;10.83;4.60;;;;;;;;;;5070878;28;20031;-78
2021/04/02 03:47:50;;;;;;;15.00;4.53;;;;;;;;;;5071081;28;20364;-78
2021/04/02 03:50:17;;;;;;;14.70;3.80;;;;;;;;;;5070544;28;20036;-78
2021/04/02 03:52:58;;;;;;;12.43;4.53;;;;;;;;;;5074566;28;20024;-78
2021/04/02 03:55:24;;;;;;;12.93;3.73;;;;;;;;;;5076126;28;20074;-78
2021/04/02 03:57:50;;;;;;;13.47;4.60;;;;;;;;;;5074925;28;20021;-78
2021/04/02 04:00:16;;;;;;;15.97;4.87;;;;;;;;;;5074932;28;20030;-78
2021/04/02 04:02:42;;;;;;;12.53;4.27;;;;;;;;;;5076030;28;20442;-78
2021/04/02 04:05:08;;;;;;;14.90;3.80;;;;;;;;;;5074998;28;20375;-78
2021/04/02 04:07:34;;;;;;;11.17;4.20;;;;;;;;;;5074589;28;20032;-78
2021/04/02 04:09:59;;;;;;;13.97;4.20;;;;;;;;;;5075927;28;20021;-78
2021/04/02 04:12:25;;;;;;;12.63;3.80;;;;;;;;;;5074398;28;20106;-78
2021/04/02 04:14:52;;;;;;;12.57;3.83;;;;;;;;;;5074655;28;20013;-78
2021/04/02 04:17:18;;;;;;;12.77;3.90;;;;;;;;;;5074527;28;20585;-78
2021/04/02 04:19:46;;;;;;;12.70;4.47;;;;;;;;;;5074479;28;20150;-78
2021/04/02 04:22:12;;;;;;;14.77;4.27;;;;;;;;;;5075899;28;20043;-78
2021/04/02 04:24:38;;;;;;;7.90;3.70;;;;;;;;;;5074507;28;20012;-78
2021/04/02 04:27:04;;;;;;;11.10;3.87;;;;;;;;;;5074263;28;20111;-78
2021/04/02 04:29:34;;;;;;;9.13;3.83;;;;;;;;;;5074411;28;20521;-78
2021/04/02 04:32:00;;;;;;;12.30;3.50;;;;;;;;;;5075763;28;20054;-78
2021/04/02 04:34:27;;;;;;;9.07;3.70;;;;;;;;;;5074049;28;20024;-78
2021/04/02 04:36:54;;;;;;;9.40;3.20;;;;;;;;;;5073955;28;20024;-78
2021/04/02 04:39:20;;;;;;;12.00;3.90;;;;;;;;;;5074298;28;20016;-78
2021/04/02 04:41:45;;;;;;;14.80;3.57;;;;;;;;;;5075363;28;20012;-78
2021/04/02 04:44:12;;;;;;;12.13;3.53;;;;;;;;;;5074114;28;20468;-78
2021/04/02 04:46:37;;;;;;;13.80;3.57;;;;;;;;;;5074144;28;20050;-78
2021/04/02 04:49:02;;;;;;;15.53;3.50;;;;;;;;;;5075270;28;20055;-78
2021/04/02 04:51:29;;;;;;;13.17;3.23;;;;;;;;;;5074072;28;20052;-78
2021/04/02 04:53:55;;;;;;;10.57;3.43;;;;;;;;;;5073976;28;20071;-78
2021/04/02 04:56:23;;;;;;;11.97;4.10;;;;;;;;;;5073963;28;20016;-78
2021/04/02 04:58:51;;;;;;;9.33;3.47;;;;;;;;;;5073824;28;20016;-78
2021/04/02 05:01:16;;;;;;;10.17;3.17;;;;;;;;;;5062448;28;20032;-80
2021/04/02 05:03:42;;;;;;;11.50;3.33;;;;;;;;;;5072936;28;20498;-80
2021/04/02 05:06:08;;;;;;;15.27;3.30;;;;;;;;;;5073685;28;20020;-80
2021/04/02 05:08:43;;;;;;;12.33;2.80;;;;;;;;;;5073787;28;20021;-80
2021/04/02 05:11:10;;;;;;;7.07;3.00;;;;;;;;;;5073542;28;20027;-80
2021/04/02 05:13:36;;;;;;;14.07;3.77;;;;;;;;;;5073535;28;20024;-80
2021/04/02 05:16:02;;;;;;;10.17;3.07;;;;;;;;;;5074721;28;20164;-80
2021/04/02 05:18:29;;;;;;;10.70;3.40;;;;;;;;;;5073450;28;20371;-80
2021/04/02 05:20:54;;;;;;;13.47;3.00;;;;;;;;;;5073492;28;20376;-80
2021/04/02 05:23:19;;;;;;;9.50;3.37;;;;;;;;;;5074570;28;20016;-80
2021/04/02 05:25:45;;;;;;;10.50;3.43;;;;;;;;;;5067167;28;20410;-80
2021/04/02 05:28:10;;;;;;;7.27;3.10;;;;;;;;;;5069381;28;20379;-80
2021/04/02 05:30:36;;;;;;;10.33;3.37;;;;;;;;;;5074099;28;20070;-80
2021/04/02 05:33:02;;;;;;;11.83;3.60;;;;;;;;;;5073140;28;20392;-80
2021/04/02 05:35:27;;;;;;;9.67;3.53;;;;;;;;;;5073044;28;20101;-80
2021/04/02 05:37:52;;;;;;;14.93;3.43;;;;;;;;;;5073252;28;20424;-80
2021/04/02 05:40:18;;;;;;;17.43;3.90;;;;;;;;;;5073005;28;20017;-80
2021/04/02 05:42:47;;;;;;;12.90;3.43;;;;;;;;;;5074174;28;20024;-80
2021/04/02 05:45:14;;;;;;;13.07;3.50;;;;;;;;;;5074213;28;20028;-80
2021/04/02 05:47:41;;;;;;;10.30;3.03;;;;;;;;;;5073026;28;20023;-80
2021/04/02 05:50:07;;;;;;;17.83;3.70;;;;;;;;;;5072940;28;20112;-80
2021/04/02 05:52:33;;;;;;;9.03;3.17;;;;;;;;;;5072846;28;20111;-80
2021/04/02 05:55:00;;;;;;;10.03;3.97;;;;;;;;;;5072812;28;20028;-80
2021/04/02 05:57:26;;;;;;;16.57;4.00;;;;;;;;;;5072666;28;20039;-80
2021/04/02 05:59:52;;;;;;;11.07;3.43;;;;;;;;;;5072561;28;20115;-80
2021/04/02 06:02:17;;;;;;;13.90;3.87;;;;;;;;;;5073877;28;20031;-80
2021/04/02 06:04:44;;;;;;;10.90;3.80;;;;;;;;;;5073941;28;20083;-80
2021/04/02 06:07:09;;;;;;;10.77;4.00;;;;;;;;;;5072605;28;20423;-80
2021/04/02 06:09:34;;;;;;;14.30;4.13;;;;;;;;;;5073639;28;20044;-80
2021/04/02 06:12:00;;;;;;;10.80;3.17;;;;;;;;;;5073682;28;20031;-80
2021/04/02 06:14:25;;;;;;;11.87;3.93;;;;;;;;;;5073254;28;20091;-80
2021/04/02 06:16:51;;;;;;;27.30;4.23;;;;;;;;;;5072289;28;20024;-80
2021/04/02 06:19:17;;;;;;;17.97;3.60;;;;;;;;;;5073825;28;20028;-80
2021/04/02 06:21:48;;;;;;;12.57;4.10;;;;;;;;;;5072116;28;20012;-80
2021/04/02 06:24:14;;;;;;;11.07;3.57;;;;;;;;;;5096313;28;20055;-80
2021/04/02 06:26:39;;;;;;;11.33;3.17;;;;;;;;;;5073356;28;20036;-80
2021/04/02 06:29:04;;;;;;;8.80;3.10;;;;;;;;;;5072222;28;20055;-80
2021/04/02 06:31:35;;;;;;;11.10;3.57;;;;;;;;;;5072052;28;20031;-78
2021/04/02 06:34:04;;;;;;;10.77;3.57;;;;;;;;;;5072334;28;20398;-78
2021/04/02 06:36:29;;;;;;;16.47;4.40;;;;;;;;;;5073375;28;20031;-79
2021/04/02 06:38:56;;;;;;;9.87;3.27;;;;;;;;;;5073094;28;20013;-79
2021/04/02 06:41:22;;;;;;;9.20;2.97;;;;;;;;;;5073316;28;20042;-79
2021/04/02 06:43:49;;;;;;;12.85;3.30;;;;;;;;;;5071700;28;20020;-78
2021/04/02 06:46:25;;;;;;;12.13;3.58;;;;;;;;;;5071784;28;20029;-79
2021/04/02 06:48:51;;;;;;;7.35;2.70;;;;;;;;;;5073141;28;20052;-78
2021/04/02 06:51:17;;;;;;;8.63;2.42;;;;;;;;;;5071580;28;20059;-79
2021/04/02 06:53:43;;;;;;;6.68;2.50;;;;;;;;;;5071485;28;20020;-79
2021/04/02 06:56:10;;;;;;;9.65;2.88;;;;;;;;;;5071756;28;20017;-79
2021/04/02 06:58:37;;;;;;;7.15;3.47;;;;;;;;;;5071274;28;20024;-79
2021/04/02 07:01:03;;;;;;;7.38;2.58;;;;;;;;;;5071403;28;20116;-79
2021/04/02 07:03:29;;;;;;;5.40;2.25;;;;;;;;;;5059397;28;20060;-78
2021/04/02 07:05:55;;;;;;;9.25;3.10;;;;;;;;;;5071195;28;20103;-78
2021/04/02 07:08:21;;;;;;;7.63;2.03;;;;;;;;;;5071592;28;20062;-79
2021/04/02 07:10:47;;;;;;;11.77;2.70;;;;;;;;;;5072674;28;20071;-78
2021/04/02 07:13:12;;;;;;;13.88;4.20;;;;;;;;;;5071452;28;20471;-78
2021/04/02 07:15:38;;;;;;;12.05;2.80;;;;;;;;;;5072800;28;20046;-78
2021/04/02 07:18:05;;;;;;;11.50;3.40;;;;;;;;;;5070622;28;20021;-78
2021/04/02 07:20:31;;;;;;;6.60;2.45;;;;;;;;;;5071696;28;20020;-78
2021/04/02 07:22:56;;;;;;;9.30;2.40;;;;;;;;;;5071037;28;20464;-78
2021/04/02 07:25:22;;;;;;;8.98;2.88;;;;;;;;;;5071916;28;20035;-78
2021/04/02 07:27:47;;;;;;;10.18;2.75;;;;;;;;;;5070883;28;20035;-78
2021/04/02 07:30:14;;;;;;;6.32;2.33;;;;;;;;;;5071857;28;20058;-78
2021/04/02 07:32:40;;;;;;;12.70;2.45;;;;;;;;;;5072052;28;20024;-78
2021/04/02 07:35:06;;;;;;;8.63;2.33;;;;;;;;;;5066789;28;20037;-78
2021/04/02 07:37:37;;;;;;;9.32;2.80;;;;;;;;;;5071594;28;20025;-78
2021/04/02 07:40:04;;;;;;;9.93;2.60;;;;;;;;;;5072595;28;20023;-78
2021/04/02 07:42:30;;;;;;;7.22;2.70;;;;;;;;;;5071958;28;20096;-78
2021/04/02 07:44:55;;;;;;;11.73;3.40;;;;;;;;;;5068952;28;20111;-78
2021/04/02 07:47:22;;;;;;;7.57;2.90;;;;;;;;;;5071741;28;20086;-78
2021/04/02 07:49:47;;;;;;;8.95;2.42;;;;;;;;;;5070980;28;20050;-78
2021/04/02 07:52:13;;;;;;;7.13;2.75;;;;;;;;;;5070676;28;20036;-78
2021/04/02 07:54:41;;;;;;;11.13;3.35;;;;;;;;;;5070976;28;20033;-78
2021/04/02 07:57:09;;;;;;;7.90;3.22;;;;;;;;;;5067208;28;20020;-78
2021/04/02 07:59:35;;;;;;;7.60;2.40;;;;;;;;;;5070397;28;20016;-78
2021/04/02 08:02:04;;;;;;;12.05;3.10;;;;;;;;;;5071640;28;20017;-78
2021/04/02 08:04:33;;;;;;;9.63;2.60;;;;;;;;;;5070161;28;20565;-78
2021/04/02 08:06:59;;;;;;;15.30;3.28;;;;;;;;;;5071489;28;20016;-78
2021/04/02 08:09:24;;;;;;;12.95;2.70;;;;;;;;;;5071007;28;20114;-78
2021/04/02 08:11:55;;;;;;;7.80;2.85;;;;;;;;;;5070183;28;20107;-79
2021/04/02 08:14:31;;;;;;;5.35;2.28;;;;;;;;;;5070337;28;20535;-78
2021/04/02 08:16:56;;;;;;;10.80;2.83;;;;;;;;;;5071629;28;20024;-78
2021/04/02 08:19:29;;;;;;;9.05;3.13;;;;;;;;;;5070717;28;20024;-78
2021/04/02 08:22:05;;;;;;;4.68;2.28;;;;;;;;;;5071845;28;20211;-78
2021/04/02 08:24:31;;;;;;;11.85;3.08;;;;;;;;;;5093851;28;20032;-78
2021/04/02 08:26:57;;;;;;;7.03;2.85;;;;;;;;;;5071573;28;20445;-78
2021/04/02 08:29:23;;;;;;;14.52;2.47;;;;;;;;;;5070698;28;20028;-78
2021/04/02 08:31:50;;;;;;;9.18;2.80;;;;;;;;;;5071419;28;20033;-78
2021/04/02 08:34:17;;;;;;;9.88;3.15;;;;;;;;;;5072160;28;20108;-78
2021/04/02 08:36:43;;;;;;;12.63;2.90;;;;;;;;;;5070500;28;20115;-78
2021/04/02 08:39:09;;;;;;;10.65;2.97;;;;;;;;;;5073757;28;20096;-78
2021/04/02 08:41:34;;;;;;;8.00;2.33;;;;;;;;;;5074266;28;20475;-78
2021/04/02 08:43:59;;;;;;;15.40;3.30;;;;;;;;;;5073907;28;20386;-78
2021/04/02 08:46:44;;;;;;;8.73;2.92;;;;;;;;;;5075411;28;20029;-78
2021/04/02 08:49:10;;;;;;;10.68;3.25;;;;;;;;;;5075139;28;20044;-78
2021/04/02 08:51:36;;;;;;;12.18;3.05;;;;;;;;;;5075279;28;20463;-78
2021/04/02 08:54:02;;;;;;;9.57;2.78;;;;;;;;;;5074838;28;20032;-78
2021/04/02 08:56:28;;;;;;;13.27;3.00;;;;;;;;;;5073823;28;20025;-78
2021/04/02 08:58:54;;;;;;;10.60;3.03;;;;;;;;;;5075001;28;20021;-78
2021/04/02 09:01:20;;;;;;;12.48;3.15;;;;;;;;;;5075223;28;20347;-78
2021/04/02 09:03:46;;;;;;;11.77;2.85;;;;;;;;;;5073704;28;20029;-78
2021/04/02 09:06:12;;;;;;;11.05;2.92;;;;;;;;;;5073302;28;20020;-78
2021/04/02 09:08:37;;;;;;;10.35;2.13;;;;;;;;;;5075060;28;20392;-78
2021/04/02 09:11:10;;;;;;;12.77;2.95;;;;;;;;;;5073409;28;20024;-78
2021/04/02 09:13:43;;;;;;;12.43;2.90;;;;;;;;;;5073488;28;20035;-78
2021/04/02 09:16:08;;;;;;;;;;;;;;;;;;5075151;28;20059;-78
2021/04/02 09:18:33;;;;;;;9.27;2.80;;;;;;;;;;5074687;28;19912;-78
2021/04/02 09:20:58;;;;;;;14.63;2.95;;;;;;;;;;5073483;28;20035;-78
2021/04/02 09:23:24;;;;;;;9.98;2.22;;;;;;;;;;5074627;28;20100;-78
2021/04/02 09:25:49;;;;;;;17.10;2.50;;;;;;;;;;5073419;28;20020;-78
2021/04/02 09:28:19;;;;;;;8.35;2.40;;;;;;;;;;5074468;28;20020;-78
2021/04/02 09:30:44;;;;;;;11.98;2.50;;;;;;;;;;5074444;28;20452;-78
2021/04/02 09:33:09;;;;;;;9.60;2.92;;;;;;;;;;5072906;28;20165;-78
2021/04/02 09:35:35;;;;;;;7.05;2.15;;;;;;;;;;5073033;28;20027;-78
2021/04/02 09:38:00;;;;;;;10.52;3.10;;;;;;;;;;5074441;28;20062;-78
2021/04/02 09:40:29;;;;;;;12.88;2.25;;;;;;;;;;5072911;28;20066;-78
2021/04/02 09:42:54;;;;;;;7.82;1.95;;;;;;;;;;5073084;28;20468;-78
2021/04/02 09:45:19;;;;;;;13.90;2.63;;;;;;;;;;5072938;28;20031;-78
2021/04/02 09:47:46;;;;;;;7.22;1.80;;;;;;;;;;5074139;28;20021;-78
2021/04/02 09:50:12;;;;;;;7.65;2.08;;;;;;;;;;5072369;28;20123;-78
2021/04/02 09:52:38;;;;;;;6.35;1.50;;;;;;;;;;5072962;28;20055;-78
2021/04/02 09:55:04;;;;;;;8.45;2.53;;;;;;;;;;5074026;28;20418;-78
2021/04/02 09:57:30;;;;;;;13.45;2.67;;;;;;;;;;5073946;28;20017;-78
2021/04/02 09:59:55;;;;;;;10.25;2.13;;;;;;;;;;5074063;28;20024;-78
2021/04/02 10:02:20;;;;;;;7.97;1.98;;;;;;;;;;5073850;28;20465;-78
2021/04/02 10:04:45;;;;;;;15.00;2.17;;;;;;;;;;5074006;28;20044;-78
2021/04/02 10:07:10;;;;;;;9.23;2.15;;;;;;;;;;5073664;28;20155;-78
2021/04/02 10:09:35;;;;;;;8.93;1.95;;;;;;;;;;5072034;28;20025;-78
2021/04/02 10:12:01;;;;;;;7.70;1.98;;;;;;;;;;5072028;28;20037;-78
2021/04/02 10:14:26;;;;;;;16.90;2.30;;;;;;;;;;5072984;28;20021;-78
2021/04/02 10:16:51;;;;;;;5.95;1.48;;;;;;;;;;5071184;28;20047;-78
2021/04/02 10:19:17;;;;;;;11.75;1.75;;;;;;;;;;5073585;28;20096;-78
2021/04/02 10:21:42;;;;;;;10.25;2.08;;;;;;;;;;5071758;28;20016;-78
2021/04/02 10:24:08;;;;;;;9.57;2.00;;;;;;;;;;5071970;28;20123;-78
2021/04/02 10:26:33;;;;;;;6.85;2.13;;;;;;;;;;5071609;28;20430;-78
2021/04/02 10:28:58;;;;;;;7.55;1.85;;;;;;;;;;5060744;28;20024;-78
2021/04/02 10:31:24;;;;;;;6.55;1.38;;;;;;;;;;5065362;28;20021;-79
2021/04/02 10:33:49;;;;;;;6.47;2.10;;;;;;;;;;5071885;28;20021;-78
2021/04/02 10:36:14;;;;;;;8.13;2.35;;;;;;;;;;5073413;28;20371;-78
2021/04/02 10:38:40;;;;;;;8.10;2.78;;;;;;;;;;5071442;28;20036;-78
2021/04/02 10:41:05;;;;;;;22.38;7.93;;;;;;;;;;5070630;28;20103;-78
2021/04/02 10:43:34;;;;;;;10.65;3.42;;;;;;;;;;5071764;28;20025;-78
2021/04/02 10:45:59;;;;;;;10.48;2.50;;;;;;;;;;5071904;28;20475;-78
2021/04/02 10:48:24;;;;;;;10.88;2.63;;;;;;;;;;5071892;28;20024;-78
2021/04/02 10:50:50;;;;;;;9.02;2.50;;;;;;;;;;5073269;28;20027;-78
2021/04/02 10:53:16;;;;;;;14.55;1.92;;;;;;;;;;5072622;28;20029;-78
2021/04/02 10:55:41;;;;;;;9.65;2.10;;;;;;;;;;5071596;28;20266;-78
2021/04/02 10:58:07;;;;;;;6.68;1.58;;;;;;;;;;5071606;28;20013;-78
2021/04/02 11:00:36;;;;;;;7.18;1.80;;;;;;;;;;5080339;28;20438;-78
2021/04/02 11:03:01;;;;;;;5.22;2.10;;;;;;;;;;5071571;28;20017;-78
2021/04/02 11:05:26;;;;;;;5.68;1.48;;;;;;;;;;5071561;28;20020;-78
2021/04/02 11:07:51;;;;;;;6.55;1.17;;;;;;;;;;5071711;28;20054;-78
2021/04/02 11:10:17;;;;;;;11.73;1.58;;;;;;;;;;5071480;28;20020;-78
2021/04/02 11:12:42;;;;;;;7.00;1.60;;;;;;;;;;5070386;28;20094;-78
2021/04/02 11:15:08;;;;;;;8.43;1.40;;;;;;;;;;5071420;28;20069;-78
2021/04/02 11:17:34;;;;;;;6.28;1.40;;;;;;;;;;5072580;28;20020;-78
2021/04/02 11:19:59;;;;;;;7.32;1.50;;;;;;;;;;5071156;28;20031;-79
2021/04/02 11:22:24;;;;;;;7.47;1.90;;;;;;;;;;5070955;28;20020;-78
2021/04/02 11:24:52;;;;;;;10.73;2.00;;;;;;;;;;5071017;28;20074;-78
2021/04/02 11:27:17;;;;;;;8.68;2.15;;;;;;;;;;5072546;28;20029;-77
2021/04/02 11:29:42;;;;;;;8.35;1.95;;;;;;;;;;5070751;28;20035;-78
2021/04/02 11:32:08;;;;;;;5.88;1.63;;;;;;;;;;5071952;28;20029;-78
2021/04/02 11:34:33;;;;;;;5.97;1.70;;;;;;;;;;5071356;28;20391;-78
2021/04/02 11:36:59;;;;;;;18.08;2.40;;;;;;;;;;5070231;28;20020;-78
2021/04/02 11:39:24;;;;;;;8.68;2.00;;;;;;;;;;5071161;28;20021;-78
2021/04/02 11:41:50;;;;;;;5.25;2.03;;;;;;;;;;5070610;28;20036;-78
2021/04/02 11:44:15;;;;;;;5.53;1.75;;;;;;;;;;5072808;28;20024;-78
2021/04/02 11:46:40;;;;;;;7.25;1.70;;;;;;;;;;5071093;28;20028;-78
2021/04/02 11:49:06;;;;;;;8.27;1.77;;;;;;;;;;5070261;28;20047;-78
2021/04/02 11:51:32;;;;;;;4.40;1.65;;;;;;;;;;5072114;28;20059;-78
2021/04/02 11:53:57;;;;;;;6.80;2.22;;;;;;;;;;5070841;28;20051;-78
2021/04/02 11:56:22;;;;;;;10.85;2.35;;;;;;;;;;5070425;28;20009;-78
2021/04/02 11:58:47;;;;;;;5.78;1.77;;;;;;;;;;5070526;28;20100;-78
2021/04/02 12:01:13;;;;;;;11.80;2.10;;;;;;;;;;5070409;28;20032;-78
2021/04/02 12:03:38;;;;;;;5.72;2.05;;;;;;;;;;5069094;28;20459;-78
2021/04/02 12:06:03;;;;;;;8.52;2.35;;;;;;;;;;5070051;28;20032;-78
2021/04/02 12:08:29;;;;;;;15.70;3.22;;;;;;;;;;5071629;28;20029;-78
2021/04/02 12:10:56;;;;;;;6.68;2.42;;;;;;;;;;5070073;28;20021;-78
2021/04/02 12:13:22;;;;;;;9.18;3.25;;;;;;;;;;5072292;28;20035;-78
2021/04/02 12:15:47;;;;;;;7.20;2.65;;;;;;;;;;5075826;28;20012;-78
2021/04/02 12:18:12;;;;;;;9.23;2.50;;;;;;;;;;5073864;28;20031;-78
2021/04/02 12:20:37;;;;;;;17.17;3.03;;;;;;;;;;5075848;28;20078;-78
2021/04/02 12:23:02;;;;;;;9.65;2.50;;;;;;;;;;5073892;28;20032;-78
2021/04/02 12:25:28;;;;;;;15.02;2.92;;;;;;;;;;5074455;28;20044;-78
2021/04/02 12:27:53;;;;;;;16.95;3.00;;;;;;;;;;5075854;28;20019;-78
2021/04/02 12:30:19;;;;;;;10.30;2.67;;;;;;;;;;5073955;28;20073;-78
2021/04/02 12:32:44;;;;;;;14.15;2.90;;;;;;;;;;5074415;28;20027;-78
2021/04/02 12:35:10;;;;;;;7.28;2.55;;;;;;;;;;5075385;28;20105;-78
2021/04/02 12:37:36;;;;;;;19.42;2.92;;;;;;;;;;5074275;28;20434;-78
2021/04/02 12:40:05;;;;;;;12.35;2.85;;;;;;;;;;5074256;28;20118;-78
2021/04/02 12:42:31;;;;;;;9.48;3.05;;;;;;;;;;5075291;28;20048;-78
2021/04/02 12:44:56;;;;;;;7.43;3.05;;;;;;;;;;5075601;28;20017;-78
2021/04/02 12:47:21;;;;;;;11.18;2.97;;;;;;;;;;5073878;28;20021;-78
2021/04/02 12:49:46;;;;;;;15.05;2.60;;;;;;;;;;5075290;28;20025;-78
2021/04/02 12:52:13;;;;;;;8.43;3.03;;;;;;;;;;5075173;28;20029;-78
2021/04/02 12:54:39;;;;;;;9.93;2.72;;;;;;;;;;5073918;28;20063;-77
2021/04/02 12:57:04;;;;;;;12.05;2.78;;;;;;;;;;5073483;28;20433;-78
2021/04/02 12:59:29;;;;;;;8.85;3.08;;;;;;;;;;5073790;28;20020;-78
2021/04/02 13:01:54;;;;;;;8.93;2.72;;;;;;;;;;5075185;28;20020;-78
2021/04/02 13:04:20;;;;;;;14.05;3.65;;;;;;;;;;5073887;28;20017;-78
2021/04/02 13:06:45;;;;;;;13.80;3.30;;;;;;;;;;5075449;28;20410;-78
2021/04/02 13:09:10;;;;;;;8.90;2.65;;;;;;;;;;5073889;28;20028;-78
2021/04/02 13:11:35;;;;;;;10.30;2.88;;;;;;;;;;5073412;28;20027;-78
2021/04/02 13:14:00;;;;;;;12.57;3.65;;;;;;;;;;5074738;28;20028;-78
2021/04/02 13:16:26;;;;;;;13.35;3.45;;;;;;;;;;5061258;28;20044;-78
2021/04/02 13:18:51;;;;;;;10.48;2.97;;;;;;;;;;5072581;28;20452;-78
2021/04/02 13:21:16;;;;;;;12.52;2.72;;;;;;;;;;5073628;28;20016;-78
2021/04/02 13:23:42;;;;;;;12.27;2.95;;;;;;;;;;5071622;28;20032;-78
2021/04/02 13:26:07;;;;;;;14.25;3.38;;;;;;;;;;5068368;28;20039;-78
2021/04/02 13:28:32;;;;;;;17.42;2.97;;;;;;;;;;5064991;28;20028;-78
2021/04/02 13:30:58;;;;;;;9.77;2.92;;;;;;;;;;5066261;28;20035;-78
2021/04/02 13:33:23;;;;;;;14.23;2.83;;;;;;;;;;5064891;28;20040;-78
2021/04/02 13:35:49;;;;;;;11.18;2.67;;;;;;;;;;5070915;28;20028;-78
2021/04/02 13:38:14;;;;;;;10.98;2.88;;;;;;;;;;5069543;28;20032;-79
2021/04/02 13:40:39;;;;;;;8.93;2.60;;;;;;;;;;5063793;28;20481;-78
2021/04/02 13:43:04;;;;;;;13.65;2.67;;;;;;;;;;5070692;28;20016;-78
2021/04/02 13:45:30;;;;;;;9.60;2.92;;;;;;;;;;5071757;28;20046;-80
2021/04/02 13:47:56;;;;;;;16.40;2.80;;;;;;;;;;5064267;28;20352;-78
2021/04/02 13:50:22;;;;;;;11.30;3.05;;;;;;;;;;5070917;28;20035;-78
2021/04/02 13:52:48;;;;;;;6.30;1.92;;;;;;;;;;5066626;28;20035;-78
2021/04/02 13:55:14;;;;;;;17.00;3.22;;;;;;;;;;5064769;28;20020;-78
2021/04/02 13:57:39;;;;;;;13.63;2.65;;;;;;;;;;5065337;28;20024;-77
2021/04/02 14:00:05;;;;;;;10.00;2.58;;;;;;;;;;5068951;28;20017;-78
2021/04/02 14:02:31;;;;;;;13.18;4.55;;;;;;;;;;5065780;28;20107;-78
2021/04/02 14:04:56;;;;;;;10.95;3.40;;;;;;;;;;5063076;28;20056;-78
2021/04/02 14:07:21;;;;;;;14.07;3.20;;;;;;;;;;5070519;28;20048;-78
2021/04/02 14:09:46;;;;;;;10.18;2.60;;;;;;;;;;5058815;28;20021;-78
2021/04/02 14:12:12;;;;;;;14.05;3.38;;;;;;;;;;5062392;28;20468;-77
2021/04/02 14:14:37;;;;;;;12.73;2.80;;;;;;;;;;5063868;28;20074;-77
2021/04/02 14:17:02;;;;;;;8.68;3.25;;;;;;;;;;5071339;28;20345;-78
2021/04/02 14:19:28;;;;;;;14.35;3.15;;;;;;;;;;5073246;28;20420;-78
2021/04/02 14:21:53;;;;;;;9.88;2.35;;;;;;;;;;5073133;28;20127;-78
2021/04/02 14:24:18;;;;;;;11.00;2.17;;;;;;;;;;5071697;28;20050;-78
2021/04/02 14:26:44;;;;;;;7.97;2.35;;;;;;;;;;5073459;28;20017;-78
2021/04/02 14:29:09;;;;;;;17.52;2.80;;;;;;;;;;5073596;28;20051;-78